Time,TemperatureF,DewpointF,PressureIn,WindDirection,WindDirectionDegrees,WindSpeedMPH,WindSpeedGustMPH,Humidity,HourlyPrecipIn,Conditions,Clouds,dailyrainin,SoftwareType,DateUTC
2013-09-05 04:52:00,60.0,57.0,29.51,East,90,0.0,0.0,91,0.00,,,0.00,,2013-09-05 11:52:00,
2013-09-05 05:12:00,61.0,58.0,29.51,ESE,113,0.0,1.0,90,0.00,,,0.00,,2013-09-05 12:12:00,
2013-09-05 05:21:00,61.0,58.0,29.51,ESE,113,0.0,1.0,90,0.00,,,0.00,,2013-09-05 12:21:00,
2013-09-05 05:52:00,61.0,58.0,29.52,East,90,1.0,1.0,90,0.00,,,0.00,,2013-09-05 12:52:00,
2013-09-05 06:12:00,61.0,58.0,29.51,SE,135,0.0,1.0,90,0.00,,,0.00,,2013-09-05 13:12:00,
2013-09-05 06:21:00,61.0,58.0,29.51,WNW,293,0.0,2.0,90,0.00,,,0.00,,2013-09-05 13:21:00,
2013-09-05 06:52:00,61.0,58.0,29.53,West,270,0.0,0.0,89,0.00,,,0.00,,2013-09-05 13:52:00,
2013-09-05 07:21:00,61.0,58.0,29.52,SE,135,1.0,2.0,89,0.00,,,0.00,,2013-09-05 14:21:00,
2013-09-05 07:42:00,61.0,58.0,29.52,ESE,113,1.0,1.0,89,0.00,,,0.00,,2013-09-05 14:42:00,
2013-09-05 07:52:00,61.0,58.0,29.51,East,90,1.0,3.0,90,0.00,,,0.00,,2013-09-05 14:52:00,
2013-09-05 08:22:00,61.0,58.0,29.50,ESE,113,1.0,3.0,90,0.06,,,0.06,,2013-09-05 15:22:00,
2013-09-05 08:54:00,61.0,58.0,29.51,SE,135,1.0,3.0,90,0.20,,,0.23,,2013-09-05 15:54:00,
2013-09-05 09:23:00,62.0,59.0,29.52,NNE,23,0.0,1.0,90,0.14,,,0.23,,2013-09-05 16:23:00,
2013-09-05 09:43:00,62.0,59.0,29.51,NNW,338,0.0,1.0,90,0.03,,,0.23,,2013-09-05 16:43:00,
2013-09-05 09:54:00,63.0,60.0,29.51,SW,225,0.0,0.0,90,0.00,,,0.23,,2013-09-05 16:54:00,
2013-09-05 10:12:00,65.0,62.0,29.51,NW,315,0.0,0.0,89,0.00,,,0.23,,2013-09-05 17:12:00,
2013-09-05 10:23:00,64.0,60.0,29.51,NW,315,0.0,0.0,88,0.00,,,0.23,,2013-09-05 17:23:00,
2013-09-05 10:43:00,65.0,60.0,29.51,NNW,338,1.0,4.0,85,0.00,,,0.23,,2013-09-05 17:43:00,
2013-09-05 10:52:00,66.0,61.0,29.52,NNE,23,1.0,1.0,83,0.00,,,0.23,,2013-09-05 17:52:00,
2013-09-05 11:02:00,66.0,61.0,29.52,NNE,23,1.0,1.0,83,0.00,,,0.23,,2013-09-05 18:02:00,
2013-09-05 11:12:00,66.0,61.0,29.52,NNE,23,1.0,1.0,83,0.00,,,0.23,,2013-09-05 18:12:00,
2013-09-05 11:21:00,66.0,60.0,29.52,NNW,338,1.0,3.0,81,0.00,,,0.23,,2013-09-05 18:21:00,
2013-09-05 11:52:00,66.0,60.0,29.52,West,270,1.0,3.0,81,0.00,,,0.23,,2013-09-05 18:52:00,
2013-09-05 12:11:00,66.0,59.0,29.52,North,0,1.0,1.0,79,0.00,,,0.23,,2013-09-05 19:11:00,
2013-09-05 12:21:00,67.0,58.0,29.51,West,270,2.0,3.0,73,0.00,,,0.23,,2013-09-05 19:21:00,
2013-09-05 12:42:00,68.0,60.0,29.51,WNW,293,2.0,3.0,75,0.00,,,0.23,,2013-09-05 19:42:00,
2013-09-05 12:52:00,70.0,59.0,29.51,NNW,338,1.0,3.0,69,0.00,,,0.23,,2013-09-05 19:52:00,
2013-09-05 13:52:00,71.0,59.0,29.50,SW,225,2.0,4.0,66,0.00,,,0.23,,2013-09-05 20:52:00,
2013-09-05 14:21:00,71.0,59.0,29.49,NNW,338,1.0,2.0,65,0.00,,,0.23,,2013-09-05 21:21:00,
2013-09-05 14:54:00,68.0,57.0,29.49,ENE,68,1.0,3.0,68,0.00,,,0.23,,2013-09-05 21:54:00,
2013-09-05 15:13:00,69.0,58.0,29.48,NNE,23,2.0,3.0,68,0.00,,,0.23,,2013-09-05 22:13:00,
2013-09-05 15:24:00,69.0,58.0,29.48,NNW,338,2.0,4.0,68,0.00,,,0.23,,2013-09-05 22:24:00,
2013-09-05 15:43:00,69.0,58.0,29.48,WSW,248,2.0,3.0,67,0.00,,,0.23,,2013-09-05 22:43:00,
2013-09-05 15:53:00,69.0,58.0,29.48,WSW,248,2.0,3.0,67,0.00,,,0.23,,2013-09-05 22:53:00,
2013-09-05 16:12:00,69.0,58.0,29.47,West,270,1.0,4.0,67,0.00,,,0.23,,2013-09-05 23:12:00,
2013-09-05 16:22:00,68.0,57.0,29.47,WNW,293,1.0,3.0,68,0.00,,,0.23,,2013-09-05 23:22:00,
2013-09-05 16:53:00,67.0,57.0,29.46,NNW,338,1.0,1.0,70,0.00,,,0.23,,2013-09-05 23:53:00,
2013-09-05 17:12:00,66.0,57.0,29.47,NE,45,1.0,2.0,73,0.00,,,0.23,,2013-09-06 00:12:00,
2013-09-05 17:22:00,66.0,57.0,29.47,ENE,68,1.0,2.0,74,0.00,,,0.23,,2013-09-06 00:22:00,
2013-09-05 17:42:00,66.0,57.0,29.47,WSW,248,1.0,3.0,74,0.00,,,0.23,,2013-09-06 00:42:00,
2013-09-05 17:52:00,66.0,57.0,29.47,West,270,1.0,2.0,74,0.00,,,0.23,,2013-09-06 00:52:00,
2013-09-05 18:11:00,66.0,57.0,29.46,NW,315,1.0,2.0,74,0.00,,,0.23,,2013-09-06 01:11:00,
2013-09-05 18:21:00,65.0,57.0,29.45,NNE,23,0.0,1.0,76,0.03,,,0.26,,2013-09-06 01:21:00,
2013-09-05 18:41:00,64.0,57.0,29.45,WNW,293,1.0,3.0,79,0.03,,,0.26,,2013-09-06 01:41:00,
2013-09-05 18:52:00,64.0,57.0,29.46,North,0,0.0,2.0,79,0.03,,,0.26,,2013-09-06 01:52:00,
2013-09-05 19:22:00,64.0,57.0,29.45,WNW,293,0.0,0.0,79,0.00,,,0.26,,2013-09-06 02:22:00,
2013-09-05 19:42:00,64.0,57.0,29.45,East,90,0.0,0.0,79,0.00,,,0.26,,2013-09-06 02:42:00,
2013-09-05 19:52:00,64.0,57.0,29.46,ESE,113,0.0,0.0,79,0.00,,,0.26,,2013-09-06 02:52:00,
2013-09-05 20:22:00,63.0,57.0,29.45,ESE,113,0.0,0.0,80,0.00,,,0.26,,2013-09-06 03:22:00,
2013-09-05 20:55:00,62.0,56.0,29.43,North,0,0.0,0.0,81,0.00,,,0.26,,2013-09-06 03:55:00,
2013-09-05 21:13:00,62.0,56.0,29.45,East,90,0.0,0.0,81,0.00,,,0.26,,2013-09-06 04:13:00,
2013-09-05 21:23:00,63.0,57.0,29.45,West,270,0.0,0.0,82,0.00,,,0.26,,2013-09-06 04:23:00,
2013-09-05 21:54:00,62.0,57.0,29.44,ESE,113,0.0,0.0,83,0.00,,,0.26,,2013-09-06 04:54:00,
2013-09-05 22:12:00,62.0,57.0,29.44,ESE,113,0.0,0.0,83,0.00,,,0.26,,2013-09-06 05:12:00,
2013-09-05 22:23:00,63.0,58.0,29.44,WSW,248,1.0,2.0,84,0.00,,,0.26,,2013-09-06 05:23:00,
2013-09-05 22:52:00,62.0,57.0,29.46,East,90,1.0,2.0,85,0.00,,,0.26,,2013-09-06 05:52:00,
2013-09-05 23:11:00,62.0,58.0,29.45,ESE,113,0.0,0.0,86,0.02,,,0.28,,2013-09-06 06:11:00,
2013-09-05 23:21:00,62.0,58.0,29.46,East,90,2.0,2.0,87,0.05,,,0.31,,2013-09-06 06:21:00,
2013-09-05 23:53:00,61.0,58.0,29.48,ENE,68,2.0,6.0,89,0.19,,,0.45,,2013-09-06 06:53:00,